sensor_id;sensor_type;location;lat;lon;timestamp;temperature;humidity
2463;DHT22;1243;54.298;10.172;2023-05-07T00:00:37;8.80;95.40
2463;DHT22;1243;54.298;10.172;2023-05-07T00:03:03;8.80;94.70
2463;DHT22;1243;54.298;10.172;2023-05-07T00:05:29;8.70;93.90
2463;DHT22;1243;54.298;10.172;2023-05-07T00:07:55;8.80;95.30
2463;DHT22;1243;54.298;10.172;2023-05-07T00:10:20;8.80;95.20
2463;DHT22;1243;54.298;10.172;2023-05-07T00:12:46;8.80;94.60
2463;DHT22;1243;54.298;10.172;2023-05-07T00:15:12;8.80;94.60
2463;DHT22;1243;54.298;10.172;2023-05-07T00:17:38;8.90;94.10
2463;DHT22;1243;54.298;10.172;2023-05-07T00:20:07;8.90;94.10
2463;DHT22;1243;54.298;10.172;2023-05-07T00:22:42;8.80;92.20
2463;DHT22;1243;54.298;10.172;2023-05-07T00:25:08;8.80;93.40
2463;DHT22;1243;54.298;10.172;2023-05-07T00:27:35;8.80;92.80
2463;DHT22;1243;54.298;10.172;2023-05-07T00:30:01;8.90;93.20
2463;DHT22;1243;54.298;10.172;2023-05-07T00:32:27;8.90;93.80
2463;DHT22;1243;54.298;10.172;2023-05-07T00:34:52;8.90;92.20
2463;DHT22;1243;54.298;10.172;2023-05-07T00:37:18;8.90;90.40
2463;DHT22;1243;54.298;10.172;2023-05-07T00:39:44;8.90;84.10
2463;DHT22;1243;54.298;10.172;2023-05-07T00:42:09;8.90;80.50
2463;DHT22;1243;54.298;10.172;2023-05-07T00:44:35;8.90;84.80
2463;DHT22;1243;54.298;10.172;2023-05-07T00:47:03;8.90;81.30
2463;DHT22;1243;54.298;10.172;2023-05-07T00:49:38;8.80;85.90
2463;DHT22;1243;54.298;10.172;2023-05-07T00:52:06;8.90;87.10
2463;DHT22;1243;54.298;10.172;2023-05-07T00:54:35;8.90;89.90
2463;DHT22;1243;54.298;10.172;2023-05-07T00:57:03;8.90;85.20
2463;DHT22;1243;54.298;10.172;2023-05-07T00:59:32;8.90;88.50
2463;DHT22;1243;54.298;10.172;2023-05-07T01:01:58;8.90;90.20
2463;DHT22;1243;54.298;10.172;2023-05-07T01:04:24;8.90;87.70
2463;DHT22;1243;54.298;10.172;2023-05-07T01:06:51;9.00;87.50
2463;DHT22;1243;54.298;10.172;2023-05-07T01:09:17;8.90;80.40
2463;DHT22;1243;54.298;10.172;2023-05-07T01:11:48;8.90;80.40
2463;DHT22;1243;54.298;10.172;2023-05-07T01:14:15;8.90;80.30
2463;DHT22;1243;54.298;10.172;2023-05-07T01:16:41;9.00;80.40
2463;DHT22;1243;54.298;10.172;2023-05-07T01:19:08;9.00;80.40
2463;DHT22;1243;54.298;10.172;2023-05-07T01:21:37;8.90;80.40
2463;DHT22;1243;54.298;10.172;2023-05-07T01:24:04;8.90;80.40
2463;DHT22;1243;54.298;10.172;2023-05-07T01:26:30;8.90;80.30
2463;DHT22;1243;54.298;10.172;2023-05-07T01:28:56;8.90;80.30
2463;DHT22;1243;54.298;10.172;2023-05-07T01:31:23;8.90;80.30
2463;DHT22;1243;54.298;10.172;2023-05-07T01:33:51;9.00;80.40
2463;DHT22;1243;54.298;10.172;2023-05-07T01:36:18;9.00;80.20
2463;DHT22;1243;54.298;10.172;2023-05-07T01:38:45;9.00;77.30
2463;DHT22;1243;54.298;10.172;2023-05-07T01:41:12;9.00;72.30
2463;DHT22;1243;54.298;10.172;2023-05-07T01:43:40;9.00;67.50
2463;DHT22;1243;54.298;10.172;2023-05-07T01:46:07;9.00;66.60
2463;DHT22;1243;54.298;10.172;2023-05-07T01:48:35;9.00;68.60
2463;DHT22;1243;54.298;10.172;2023-05-07T01:51:01;8.90;62.20
2463;DHT22;1243;54.298;10.172;2023-05-07T01:53:28;9.00;63.40
2463;DHT22;1243;54.298;10.172;2023-05-07T01:55:53;9.00;60.30
2463;DHT22;1243;54.298;10.172;2023-05-07T01:58:19;8.90;56.40
2463;DHT22;1243;54.298;10.172;2023-05-07T02:00:45;8.90;49.10
2463;DHT22;1243;54.298;10.172;2023-05-07T02:03:11;8.90;51.20
2463;DHT22;1243;54.298;10.172;2023-05-07T02:05:37;8.90;50.20
2463;DHT22;1243;54.298;10.172;2023-05-07T02:08:03;8.90;40.70
2463;DHT22;1243;54.298;10.172;2023-05-07T02:10:28;8.90;34.30
2463;DHT22;1243;54.298;10.172;2023-05-07T02:12:55;8.90;31.90
2463;DHT22;1243;54.298;10.172;2023-05-07T02:15:20;8.90;31.90
2463;DHT22;1243;54.298;10.172;2023-05-07T02:18:03;8.90;29.80
2463;DHT22;1243;54.298;10.172;2023-05-07T02:20:29;8.90;17.70
2463;DHT22;1243;54.298;10.172;2023-05-07T02:22:55;8.90;12.60
2463;DHT22;1243;54.298;10.172;2023-05-07T02:25:21;8.90;13.50
2463;DHT22;1243;54.298;10.172;2023-05-07T02:27:47;8.90;12.10
2463;DHT22;1243;54.298;10.172;2023-05-07T02:30:13;8.90;4.50
2463;DHT22;1243;54.298;10.172;2023-05-07T02:32:39;8.90;1.00
2463;DHT22;1243;54.298;10.172;2023-05-07T02:35:05;8.90;1.00
2463;DHT22;1243;54.298;10.172;2023-05-07T02:37:31;8.90;1.00
2463;DHT22;1243;54.298;10.172;2023-05-07T02:39:57;8.90;1.00
2463;DHT22;1243;54.298;10.172;2023-05-07T02:42:22;8.90;1.00
2463;DHT22;1243;54.298;10.172;2023-05-07T02:44:48;8.90;1.00
2463;DHT22;1243;54.298;10.172;2023-05-07T02:47:15;9.00;1.00
2463;DHT22;1243;54.298;10.172;2023-05-07T02:49:41;9.00;1.00
2463;DHT22;1243;54.298;10.172;2023-05-07T02:52:07;9.00;1.00
2463;DHT22;1243;54.298;10.172;2023-05-07T02:54:33;9.00;1.00
2463;DHT22;1243;54.298;10.172;2023-05-07T02:56:58;9.00;1.00
2463;DHT22;1243;54.298;10.172;2023-05-07T02:59:26;9.00;1.00
2463;DHT22;1243;54.298;10.172;2023-05-07T03:01:52;9.00;1.00
2463;DHT22;1243;54.298;10.172;2023-05-07T03:04:17;9.00;1.00
2463;DHT22;1243;54.298;10.172;2023-05-07T03:06:43;9.00;1.00
2463;DHT22;1243;54.298;10.172;2023-05-07T03:09:09;9.00;1.00
2463;DHT22;1243;54.298;10.172;2023-05-07T03:11:34;9.00;1.00
2463;DHT22;1243;54.298;10.172;2023-05-07T03:14:01;9.00;1.00
2463;DHT22;1243;54.298;10.172;2023-05-07T03:16:27;9.10;1.00
2463;DHT22;1243;54.298;10.172;2023-05-07T03:18:53;9.00;1.00
2463;DHT22;1243;54.298;10.172;2023-05-07T03:21:19;9.10;1.00
2463;DHT22;1243;54.298;10.172;2023-05-07T03:23:54;9.10;1.00
2463;DHT22;1243;54.298;10.172;2023-05-07T03:26:20;9.00;1.00
2463;DHT22;1243;54.298;10.172;2023-05-07T03:28:45;9.00;1.00
2463;DHT22;1243;54.298;10.172;2023-05-07T03:31:11;9.00;1.00
2463;DHT22;1243;54.298;10.172;2023-05-07T03:33:49;9.00;1.00
2463;DHT22;1243;54.298;10.172;2023-05-07T03:36:15;9.10;1.00
2463;DHT22;1243;54.298;10.172;2023-05-07T03:38:41;9.10;1.00
2463;DHT22;1243;54.298;10.172;2023-05-07T03:41:07;9.00;1.00
2463;DHT22;1243;54.298;10.172;2023-05-07T03:43:32;9.10;1.00
2463;DHT22;1243;54.298;10.172;2023-05-07T03:45:58;9.10;1.00
2463;DHT22;1243;54.298;10.172;2023-05-07T03:48:24;9.10;1.00
2463;DHT22;1243;54.298;10.172;2023-05-07T03:50:50;9.10;1.00
2463;DHT22;1243;54.298;10.172;2023-05-07T03:53:16;9.00;1.00
2463;DHT22;1243;54.298;10.172;2023-05-07T03:55:41;9.10;1.00
2463;DHT22;1243;54.298;10.172;2023-05-07T03:58:07;9.10;1.00
2463;DHT22;1243;54.298;10.172;2023-05-07T04:00:33;9.10;1.00
2463;DHT22;1243;54.298;10.172;2023-05-07T04:02:59;9.10;1.00
2463;DHT22;1243;54.298;10.172;2023-05-07T04:05:25;9.10;1.00
2463;DHT22;1243;54.298;10.172;2023-05-07T04:07:51;9.10;1.00
2463;DHT22;1243;54.298;10.172;2023-05-07T04:10:16;9.10;1.00
2463;DHT22;1243;54.298;10.172;2023-05-07T04:12:42;9.10;1.00
2463;DHT22;1243;54.298;10.172;2023-05-07T04:15:08;9.20;1.00
2463;DHT22;1243;54.298;10.172;2023-05-07T04:17:34;9.10;1.00
2463;DHT22;1243;54.298;10.172;2023-05-07T04:20:00;9.20;1.00
2463;DHT22;1243;54.298;10.172;2023-05-07T04:22:26;9.10;1.00
2463;DHT22;1243;54.298;10.172;2023-05-07T04:24:52;9.20;1.00
2463;DHT22;1243;54.298;10.172;2023-05-07T04:27:17;9.20;1.00
2463;DHT22;1243;54.298;10.172;2023-05-07T04:29:43;9.20;1.00
2463;DHT22;1243;54.298;10.172;2023-05-07T04:32:13;9.20;1.00
2463;DHT22;1243;54.298;10.172;2023-05-07T04:34:38;9.20;1.00
2463;DHT22;1243;54.298;10.172;2023-05-07T04:37:04;9.30;1.00
2463;DHT22;1243;54.298;10.172;2023-05-07T04:39:30;9.30;1.00
2463;DHT22;1243;54.298;10.172;2023-05-07T04:41:55;9.30;1.00
2463;DHT22;1243;54.298;10.172;2023-05-07T04:44:21;9.40;1.00
2463;DHT22;1243;54.298;10.172;2023-05-07T04:46:47;9.40;1.00
2463;DHT22;1243;54.298;10.172;2023-05-07T04:49:13;9.30;1.00
2463;DHT22;1243;54.298;10.172;2023-05-07T04:51:38;9.30;1.00
2463;DHT22;1243;54.298;10.172;2023-05-07T04:54:08;9.40;1.00
2463;DHT22;1243;54.298;10.172;2023-05-07T04:56:33;9.30;1.00
2463;DHT22;1243;54.298;10.172;2023-05-07T04:58:59;9.30;1.00
2463;DHT22;1243;54.298;10.172;2023-05-07T05:01:25;9.30;1.00
2463;DHT22;1243;54.298;10.172;2023-05-07T05:03:51;9.30;1.00
2463;DHT22;1243;54.298;10.172;2023-05-07T05:06:17;9.30;1.00
2463;DHT22;1243;54.298;10.172;2023-05-07T05:08:42;9.30;1.00
2463;DHT22;1243;54.298;10.172;2023-05-07T05:11:08;9.40;1.00
2463;DHT22;1243;54.298;10.172;2023-05-07T05:13:34;9.40;1.00
2463;DHT22;1243;54.298;10.172;2023-05-07T05:16:00;9.40;1.00
2463;DHT22;1243;54.298;10.172;2023-05-07T05:18:26;9.40;1.00
2463;DHT22;1243;54.298;10.172;2023-05-07T05:20:52;9.40;1.00
2463;DHT22;1243;54.298;10.172;2023-05-07T05:23:20;9.40;1.00
2463;DHT22;1243;54.298;10.172;2023-05-07T05:25:49;9.40;1.00
2463;DHT22;1243;54.298;10.172;2023-05-07T05:28:18;9.40;1.00
2463;DHT22;1243;54.298;10.172;2023-05-07T05:30:44;9.50;1.00
2463;DHT22;1243;54.298;10.172;2023-05-07T05:33:09;9.50;1.00
2463;DHT22;1243;54.298;10.172;2023-05-07T05:35:35;9.50;1.00
2463;DHT22;1243;54.298;10.172;2023-05-07T05:38:01;9.60;1.00
2463;DHT22;1243;54.298;10.172;2023-05-07T05:40:26;9.50;1.00
2463;DHT22;1243;54.298;10.172;2023-05-07T05:42:52;9.50;1.00
2463;DHT22;1243;54.298;10.172;2023-05-07T05:45:18;9.60;1.00
2463;DHT22;1243;54.298;10.172;2023-05-07T05:47:43;9.60;1.00
2463;DHT22;1243;54.298;10.172;2023-05-07T05:50:10;9.60;1.00
2463;DHT22;1243;54.298;10.172;2023-05-07T05:52:35;9.60;1.00
2463;DHT22;1243;54.298;10.172;2023-05-07T05:55:01;9.70;1.00
2463;DHT22;1243;54.298;10.172;2023-05-07T05:57:27;9.70;1.00
2463;DHT22;1243;54.298;10.172;2023-05-07T05:59:53;9.70;1.00
2463;DHT22;1243;54.298;10.172;2023-05-07T06:02:18;9.80;1.00
2463;DHT22;1243;54.298;10.172;2023-05-07T06:04:44;9.80;1.00
2463;DHT22;1243;54.298;10.172;2023-05-07T06:07:10;9.80;1.00
2463;DHT22;1243;54.298;10.172;2023-05-07T06:09:37;9.80;1.00
2463;DHT22;1243;54.298;10.172;2023-05-07T06:12:02;9.80;1.00
2463;DHT22;1243;54.298;10.172;2023-05-07T06:14:28;9.80;1.00
2463;DHT22;1243;54.298;10.172;2023-05-07T06:16:54;9.80;1.00
2463;DHT22;1243;54.298;10.172;2023-05-07T06:19:20;9.90;1.00
2463;DHT22;1243;54.298;10.172;2023-05-07T06:21:48;9.90;1.00
2463;DHT22;1243;54.298;10.172;2023-05-07T06:24:14;9.90;1.00
2463;DHT22;1243;54.298;10.172;2023-05-07T06:26:40;9.90;1.00
2463;DHT22;1243;54.298;10.172;2023-05-07T06:29:06;10.00;1.00
2463;DHT22;1243;54.298;10.172;2023-05-07T06:31:32;10.10;1.00
2463;DHT22;1243;54.298;10.172;2023-05-07T06:33:58;10.10;99.90
2463;DHT22;1243;54.298;10.172;2023-05-07T06:36:24;10.10;99.90
2463;DHT22;1243;54.298;10.172;2023-05-07T06:38:50;10.10;99.90
2463;DHT22;1243;54.298;10.172;2023-05-07T06:41:16;10.20;99.90
2463;DHT22;1243;54.298;10.172;2023-05-07T06:43:41;10.20;99.90
2463;DHT22;1243;54.298;10.172;2023-05-07T06:46:07;10.20;99.90
2463;DHT22;1243;54.298;10.172;2023-05-07T06:48:33;10.20;99.90
2463;DHT22;1243;54.298;10.172;2023-05-07T06:50:59;10.20;99.90
2463;DHT22;1243;54.298;10.172;2023-05-07T06:53:25;10.30;99.90
2463;DHT22;1243;54.298;10.172;2023-05-07T06:55:51;10.30;99.90
2463;DHT22;1243;54.298;10.172;2023-05-07T06:58:17;10.30;99.90
2463;DHT22;1243;54.298;10.172;2023-05-07T07:00:43;10.40;99.90
2463;DHT22;1243;54.298;10.172;2023-05-07T07:03:09;10.40;99.90
2463;DHT22;1243;54.298;10.172;2023-05-07T07:05:35;10.40;99.90
2463;DHT22;1243;54.298;10.172;2023-05-07T07:08:01;10.50;99.90
2463;DHT22;1243;54.298;10.172;2023-05-07T07:10:27;10.60;99.90
2463;DHT22;1243;54.298;10.172;2023-05-07T07:12:52;10.60;99.90
2463;DHT22;1243;54.298;10.172;2023-05-07T07:15:19;10.70;99.90
2463;DHT22;1243;54.298;10.172;2023-05-07T07:17:46;10.80;99.90
2463;DHT22;1243;54.298;10.172;2023-05-07T07:20:13;10.80;99.90
2463;DHT22;1243;54.298;10.172;2023-05-07T07:22:40;10.90;99.90
2463;DHT22;1243;54.298;10.172;2023-05-07T07:25:06;11.00;99.90
2463;DHT22;1243;54.298;10.172;2023-05-07T07:27:34;11.10;99.90
2463;DHT22;1243;54.298;10.172;2023-05-07T07:30:00;11.20;99.90
2463;DHT22;1243;54.298;10.172;2023-05-07T07:32:26;11.10;99.90
2463;DHT22;1243;54.298;10.172;2023-05-07T07:34:51;11.10;99.90
2463;DHT22;1243;54.298;10.172;2023-05-07T07:37:17;11.20;99.90
2463;DHT22;1243;54.298;10.172;2023-05-07T07:39:43;11.20;99.90
2463;DHT22;1243;54.298;10.172;2023-05-07T07:42:09;11.20;99.90
2463;DHT22;1243;54.298;10.172;2023-05-07T07:44:34;11.30;99.90
2463;DHT22;1243;54.298;10.172;2023-05-07T07:47:00;11.30;99.90
2463;DHT22;1243;54.298;10.172;2023-05-07T07:49:26;11.30;99.90
2463;DHT22;1243;54.298;10.172;2023-05-07T07:54:46;11.50;99.90
2463;DHT22;1243;54.298;10.172;2023-05-07T07:57:12;11.60;99.90
2463;DHT22;1243;54.298;10.172;2023-05-07T07:59:38;11.60;99.90
2463;DHT22;1243;54.298;10.172;2023-05-07T08:02:05;11.60;99.90
2463;DHT22;1243;54.298;10.172;2023-05-07T08:04:31;11.70;99.90
2463;DHT22;1243;54.298;10.172;2023-05-07T08:06:58;11.70;99.90
2463;DHT22;1243;54.298;10.172;2023-05-07T08:09:24;11.70;99.90
2463;DHT22;1243;54.298;10.172;2023-05-07T08:11:50;11.80;99.90
2463;DHT22;1243;54.298;10.172;2023-05-07T08:14:16;11.90;99.90
2463;DHT22;1243;54.298;10.172;2023-05-07T08:16:42;11.90;99.90
2463;DHT22;1243;54.298;10.172;2023-05-07T08:19:13;11.90;99.90
2463;DHT22;1243;54.298;10.172;2023-05-07T08:21:39;12.00;99.90
2463;DHT22;1243;54.298;10.172;2023-05-07T08:24:05;12.10;99.90
2463;DHT22;1243;54.298;10.172;2023-05-07T08:26:31;12.20;99.90
2463;DHT22;1243;54.298;10.172;2023-05-07T08:29:01;12.40;99.90
2463;DHT22;1243;54.298;10.172;2023-05-07T08:31:27;12.40;92.90
2463;DHT22;1243;54.298;10.172;2023-05-07T08:33:53;12.50;90.50
2463;DHT22;1243;54.298;10.172;2023-05-07T08:40:15;12.40;56.20
2463;DHT22;1243;54.298;10.172;2023-05-07T08:42:42;12.40;58.70
2463;DHT22;1243;54.298;10.172;2023-05-07T08:45:10;12.60;70.90
2463;DHT22;1243;54.298;10.172;2023-05-07T08:47:50;12.60;59.50
2463;DHT22;1243;54.298;10.172;2023-05-07T08:50:17;12.60;40.20
2463;DHT22;1243;54.298;10.172;2023-05-07T08:52:43;12.70;42.40
2463;DHT22;1243;54.298;10.172;2023-05-07T08:55:10;12.70;33.50
2463;DHT22;1243;54.298;10.172;2023-05-07T08:57:36;12.60;33.00
2463;DHT22;1243;54.298;10.172;2023-05-07T09:00:06;12.60;29.20
2463;DHT22;1243;54.298;10.172;2023-05-07T09:02:35;12.50;21.40
2463;DHT22;1243;54.298;10.172;2023-05-07T09:05:02;12.60;25.20
2463;DHT22;1243;54.298;10.172;2023-05-07T09:07:28;12.60;22.30
2463;DHT22;1243;54.298;10.172;2023-05-07T09:09:55;12.70;28.40
2463;DHT22;1243;54.298;10.172;2023-05-07T09:12:23;12.70;16.60
2463;DHT22;1243;54.298;10.172;2023-05-07T09:14:51;12.80;15.50
2463;DHT22;1243;54.298;10.172;2023-05-07T09:17:17;12.90;16.30
2463;DHT22;1243;54.298;10.172;2023-05-07T09:19:44;13.00;13.30
2463;DHT22;1243;54.298;10.172;2023-05-07T09:22:13;13.00;8.60
2463;DHT22;1243;54.298;10.172;2023-05-07T09:24:48;13.10;4.50
2463;DHT22;1243;54.298;10.172;2023-05-07T09:27:14;13.20;13.90
2463;DHT22;1243;54.298;10.172;2023-05-07T09:29:41;13.30;6.30
2463;DHT22;1243;54.298;10.172;2023-05-07T09:32:08;13.20;1.00
2463;DHT22;1243;54.298;10.172;2023-05-07T09:37:38;13.00;1.00
2463;DHT22;1243;54.298;10.172;2023-05-07T09:40:07;13.20;1.00
2463;DHT22;1243;54.298;10.172;2023-05-07T09:42:33;13.10;1.00
2463;DHT22;1243;54.298;10.172;2023-05-07T09:48:00;13.20;1.00
2463;DHT22;1243;54.298;10.172;2023-05-07T09:50:37;13.30;1.00
2463;DHT22;1243;54.298;10.172;2023-05-07T09:53:14;13.50;1.00
2463;DHT22;1243;54.298;10.172;2023-05-07T09:55:42;13.80;1.00
2463;DHT22;1243;54.298;10.172;2023-05-07T09:58:09;13.90;1.00
2463;DHT22;1243;54.298;10.172;2023-05-07T10:00:37;13.90;1.00
2463;DHT22;1243;54.298;10.172;2023-05-07T10:03:05;13.90;1.00
2463;DHT22;1243;54.298;10.172;2023-05-07T10:05:32;14.00;1.00
2463;DHT22;1243;54.298;10.172;2023-05-07T10:08:01;14.10;1.00
2463;DHT22;1243;54.298;10.172;2023-05-07T10:10:28;14.10;1.00
2463;DHT22;1243;54.298;10.172;2023-05-07T10:12:55;14.10;1.00
2463;DHT22;1243;54.298;10.172;2023-05-07T10:15:21;14.20;1.00
2463;DHT22;1243;54.298;10.172;2023-05-07T10:17:51;14.20;1.00
2463;DHT22;1243;54.298;10.172;2023-05-07T10:20:19;14.30;1.00
2463;DHT22;1243;54.298;10.172;2023-05-07T10:22:50;14.40;1.00
2463;DHT22;1243;54.298;10.172;2023-05-07T10:25:36;14.40;1.00
2463;DHT22;1243;54.298;10.172;2023-05-07T10:28:06;14.50;1.00
2463;DHT22;1243;54.298;10.172;2023-05-07T10:31:50;14.80;1.00
2463;DHT22;1243;54.298;10.172;2023-05-07T10:34:12;15.20;1.00
2463;DHT22;1243;54.298;10.172;2023-05-07T10:36:42;15.50;1.00
2463;DHT22;1243;54.298;10.172;2023-05-07T10:39:09;15.80;1.00
2463;DHT22;1243;54.298;10.172;2023-05-07T10:41:35;16.10;1.00
2463;DHT22;1243;54.298;10.172;2023-05-07T10:44:02;16.50;1.00
2463;DHT22;1243;54.298;10.172;2023-05-07T10:46:28;16.70;1.00
2463;DHT22;1243;54.298;10.172;2023-05-07T10:51:32;16.50;1.00
2463;DHT22;1243;54.298;10.172;2023-05-07T10:54:27;16.70;1.00
2463;DHT22;1243;54.298;10.172;2023-05-07T10:56:54;16.90;1.00
2463;DHT22;1243;54.298;10.172;2023-05-07T11:05:28;17.60;1.00
2463;DHT22;1243;54.298;10.172;2023-05-07T11:07:59;17.90;1.00
2463;DHT22;1243;54.298;10.172;2023-05-07T11:10:47;18.40;1.00
2463;DHT22;1243;54.298;10.172;2023-05-07T11:13:14;18.60;1.00
2463;DHT22;1243;54.298;10.172;2023-05-07T11:15:47;18.80;1.00
2463;DHT22;1243;54.298;10.172;2023-05-07T11:18:15;18.90;1.00
2463;DHT22;1243;54.298;10.172;2023-05-07T11:26:02;19.00;1.00
2463;DHT22;1243;54.298;10.172;2023-05-07T11:28:44;18.60;1.00
2463;DHT22;1243;54.298;10.172;2023-05-07T11:31:10;18.80;1.00
2463;DHT22;1243;54.298;10.172;2023-05-07T11:33:37;18.90;1.00
2463;DHT22;1243;54.298;10.172;2023-05-07T11:36:13;19.00;1.00
2463;DHT22;1243;54.298;10.172;2023-05-07T11:39:33;18.80;1.00
2463;DHT22;1243;54.298;10.172;2023-05-07T11:42:33;18.90;1.00
2463;DHT22;1243;54.298;10.172;2023-05-07T11:45:24;18.50;1.00
2463;DHT22;1243;54.298;10.172;2023-05-07T11:47:52;18.60;1.00
2463;DHT22;1243;54.298;10.172;2023-05-07T11:53:12;19.30;1.00
2463;DHT22;1243;54.298;10.172;2023-05-07T11:55:40;19.20;1.00
2463;DHT22;1243;54.298;10.172;2023-05-07T11:58:06;18.90;1.00
2463;DHT22;1243;54.298;10.172;2023-05-07T12:00:32;18.60;1.00
2463;DHT22;1243;54.298;10.172;2023-05-07T12:03:18;18.80;1.00
2463;DHT22;1243;54.298;10.172;2023-05-07T12:06:06;18.40;1.00
2463;DHT22;1243;54.298;10.172;2023-05-07T12:08:50;18.20;1.00
2463;DHT22;1243;54.298;10.172;2023-05-07T12:11:22;18.20;1.00
2463;DHT22;1243;54.298;10.172;2023-05-07T12:13:48;18.90;1.00
2463;DHT22;1243;54.298;10.172;2023-05-07T12:16:14;19.40;1.00
2463;DHT22;1243;54.298;10.172;2023-05-07T12:18:40;20.10;1.00
2463;DHT22;1243;54.298;10.172;2023-05-07T12:21:07;20.50;1.00
2463;DHT22;1243;54.298;10.172;2023-05-07T12:23:34;20.60;1.00
2463;DHT22;1243;54.298;10.172;2023-05-07T12:26:01;21.30;1.00
2463;DHT22;1243;54.298;10.172;2023-05-07T12:28:37;21.50;1.00
2463;DHT22;1243;54.298;10.172;2023-05-07T12:31:04;21.20;1.00
2463;DHT22;1243;54.298;10.172;2023-05-07T12:33:31;21.20;1.00
2463;DHT22;1243;54.298;10.172;2023-05-07T12:36:02;20.60;1.00
2463;DHT22;1243;54.298;10.172;2023-05-07T12:38:38;20.00;1.00
2463;DHT22;1243;54.298;10.172;2023-05-07T12:41:06;19.30;1.00
2463;DHT22;1243;54.298;10.172;2023-05-07T12:43:32;19.20;1.00
2463;DHT22;1243;54.298;10.172;2023-05-07T12:46:01;19.20;1.00
2463;DHT22;1243;54.298;10.172;2023-05-07T12:48:29;19.30;1.00
2463;DHT22;1243;54.298;10.172;2023-05-07T12:51:15;19.50;1.00
2463;DHT22;1243;54.298;10.172;2023-05-07T12:53:47;19.80;1.00
2463;DHT22;1243;54.298;10.172;2023-05-07T12:56:15;19.80;1.00
2463;DHT22;1243;54.298;10.172;2023-05-07T12:59:01;19.70;1.00
2463;DHT22;1243;54.298;10.172;2023-05-07T13:01:34;19.60;1.00
2463;DHT22;1243;54.298;10.172;2023-05-07T13:04:03;19.50;1.00
2463;DHT22;1243;54.298;10.172;2023-05-07T13:06:30;19.60;1.00
2463;DHT22;1243;54.298;10.172;2023-05-07T13:08:57;19.20;1.00
2463;DHT22;1243;54.298;10.172;2023-05-07T13:11:23;19.10;1.00
2463;DHT22;1243;54.298;10.172;2023-05-07T13:13:49;19.20;1.00
2463;DHT22;1243;54.298;10.172;2023-05-07T13:16:20;19.40;1.00
2463;DHT22;1243;54.298;10.172;2023-05-07T13:18:46;19.40;1.00
2463;DHT22;1243;54.298;10.172;2023-05-07T13:21:30;19.30;1.00
2463;DHT22;1243;54.298;10.172;2023-05-07T13:23:58;19.00;1.00
2463;DHT22;1243;54.298;10.172;2023-05-07T13:26:45;18.80;1.00
2463;DHT22;1243;54.298;10.172;2023-05-07T13:29:11;18.50;1.00
2463;DHT22;1243;54.298;10.172;2023-05-07T13:31:37;18.20;1.00
2463;DHT22;1243;54.298;10.172;2023-05-07T13:34:16;18.00;1.00
2463;DHT22;1243;54.298;10.172;2023-05-07T13:36:45;18.10;1.00
2463;DHT22;1243;54.298;10.172;2023-05-07T13:39:14;18.20;1.00
2463;DHT22;1243;54.298;10.172;2023-05-07T13:41:40;18.40;1.00
2463;DHT22;1243;54.298;10.172;2023-05-07T13:50:13;18.50;1.00
2463;DHT22;1243;54.298;10.172;2023-05-07T13:52:43;18.70;1.00
2463;DHT22;1243;54.298;10.172;2023-05-07T13:55:11;19.00;1.00
2463;DHT22;1243;54.298;10.172;2023-05-07T13:57:38;19.10;1.00
2463;DHT22;1243;54.298;10.172;2023-05-07T14:00:05;19.10;1.00
2463;DHT22;1243;54.298;10.172;2023-05-07T14:05:57;18.90;1.00
2463;DHT22;1243;54.298;10.172;2023-05-07T14:08:25;19.70;1.00
2463;DHT22;1243;54.298;10.172;2023-05-07T14:11:23;20.20;1.00
2463;DHT22;1243;54.298;10.172;2023-05-07T14:13:49;19.80;1.00
2463;DHT22;1243;54.298;10.172;2023-05-07T14:16:15;19.40;1.00
2463;DHT22;1243;54.298;10.172;2023-05-07T14:18:43;19.60;1.00
2463;DHT22;1243;54.298;10.172;2023-05-07T14:27:41;19.20;1.00
2463;DHT22;1243;54.298;10.172;2023-05-07T14:30:08;19.20;1.00
2463;DHT22;1243;54.298;10.172;2023-05-07T14:32:45;19.00;1.00
2463;DHT22;1243;54.298;10.172;2023-05-07T14:35:11;18.80;1.00
2463;DHT22;1243;54.298;10.172;2023-05-07T14:37:37;19.10;1.00
2463;DHT22;1243;54.298;10.172;2023-05-07T14:42:40;19.90;1.00
2463;DHT22;1243;54.298;10.172;2023-05-07T14:45:06;19.70;1.00
2463;DHT22;1243;54.298;10.172;2023-05-07T14:50:56;19.20;1.00
2463;DHT22;1243;54.298;10.172;2023-05-07T14:53:22;19.40;1.00
2463;DHT22;1243;54.298;10.172;2023-05-07T14:55:48;19.60;1.00
2463;DHT22;1243;54.298;10.172;2023-05-07T14:58:14;19.40;1.00
2463;DHT22;1243;54.298;10.172;2023-05-07T15:00:43;19.20;1.00
2463;DHT22;1243;54.298;10.172;2023-05-07T15:06:59;18.70;1.00
2463;DHT22;1243;54.298;10.172;2023-05-07T15:12:48;18.60;1.00
2463;DHT22;1243;54.298;10.172;2023-05-07T15:15:14;19.10;1.00
2463;DHT22;1243;54.298;10.172;2023-05-07T15:17:41;19.10;1.00
2463;DHT22;1243;54.298;10.172;2023-05-07T15:20:14;19.10;1.00
2463;DHT22;1243;54.298;10.172;2023-05-07T15:22:40;19.10;1.00
2463;DHT22;1243;54.298;10.172;2023-05-07T15:25:31;19.10;1.00
2463;DHT22;1243;54.298;10.172;2023-05-07T15:27:59;19.20;1.00
2463;DHT22;1243;54.298;10.172;2023-05-07T15:30:25;19.30;1.00
2463;DHT22;1243;54.298;10.172;2023-05-07T15:32:51;19.60;1.00
2463;DHT22;1243;54.298;10.172;2023-05-07T15:35:30;19.60;1.00
2463;DHT22;1243;54.298;10.172;2023-05-07T15:37:55;19.60;1.00
2463;DHT22;1243;54.298;10.172;2023-05-07T15:43:12;19.80;1.00
2463;DHT22;1243;54.298;10.172;2023-05-07T15:46:01;19.70;1.00
2463;DHT22;1243;54.298;10.172;2023-05-07T15:48:27;19.50;1.00
2463;DHT22;1243;54.298;10.172;2023-05-07T15:54:36;18.70;1.00
2463;DHT22;1243;54.298;10.172;2023-05-07T15:56:55;18.20;1.00
2463;DHT22;1243;54.298;10.172;2023-05-07T15:59:23;17.90;1.00
2463;DHT22;1243;54.298;10.172;2023-05-07T16:01:52;18.00;1.00
2463;DHT22;1243;54.298;10.172;2023-05-07T16:04:39;18.10;1.00
2463;DHT22;1243;54.298;10.172;2023-05-07T16:07:04;18.30;1.00
2463;DHT22;1243;54.298;10.172;2023-05-07T16:09:33;18.50;1.00
2463;DHT22;1243;54.298;10.172;2023-05-07T16:12:12;18.50;1.00
2463;DHT22;1243;54.298;10.172;2023-05-07T16:15:03;18.40;1.00
2463;DHT22;1243;54.298;10.172;2023-05-07T16:17:29;18.20;1.00
2463;DHT22;1243;54.298;10.172;2023-05-07T16:20:04;17.90;1.00
2463;DHT22;1243;54.298;10.172;2023-05-07T16:22:39;17.70;1.00
2463;DHT22;1243;54.298;10.172;2023-05-07T16:25:21;17.60;1.00
2463;DHT22;1243;54.298;10.172;2023-05-07T16:27:47;17.40;1.00
2463;DHT22;1243;54.298;10.172;2023-05-07T16:33:31;17.20;1.00
2463;DHT22;1243;54.298;10.172;2023-05-07T16:35:57;16.90;1.00
2463;DHT22;1243;54.298;10.172;2023-05-07T16:38:23;16.80;1.00
2463;DHT22;1243;54.298;10.172;2023-05-07T16:40:51;16.60;1.00
2463;DHT22;1243;54.298;10.172;2023-05-07T16:43:17;16.50;1.00
2463;DHT22;1243;54.298;10.172;2023-05-07T16:45:44;16.40;1.00
2463;DHT22;1243;54.298;10.172;2023-05-07T16:48:11;16.40;1.00
2463;DHT22;1243;54.298;10.172;2023-05-07T16:50:42;16.30;1.00
2463;DHT22;1243;54.298;10.172;2023-05-07T16:53:10;16.20;1.00
2463;DHT22;1243;54.298;10.172;2023-05-07T16:55:36;16.10;1.00
2463;DHT22;1243;54.298;10.172;2023-05-07T16:59:11;15.80;1.00
2463;DHT22;1243;54.298;10.172;2023-05-07T17:01:21;15.60;1.00
2463;DHT22;1243;54.298;10.172;2023-05-07T17:03:49;15.50;1.00
2463;DHT22;1243;54.298;10.172;2023-05-07T17:06:15;15.30;1.00
2463;DHT22;1243;54.298;10.172;2023-05-07T17:08:42;15.10;1.00
2463;DHT22;1243;54.298;10.172;2023-05-07T17:11:09;15.00;1.00
2463;DHT22;1243;54.298;10.172;2023-05-07T17:13:35;14.80;1.00
2463;DHT22;1243;54.298;10.172;2023-05-07T17:16:01;14.60;1.00
2463;DHT22;1243;54.298;10.172;2023-05-07T17:18:26;14.50;1.00